Time;durP1;ratioP1;P1;durP2;ratioP2;P2;SDS_P1;SDS_P2;PMS_P1;PMS_P2;Temp;Humidity;BMP_temperature;BMP_pressure;BME280_temperature;BME280_humidity;BME280_pressure;Samples;Min_cycle;Max_cycle;Signal;HPM_P1;HPM_P2
2023/12/31 00:01:45;;;;;;;9.98;4.32;;;19.40;57.30;;;;;;5064295;28;20032;-64
2023/12/31 00:04:11;;;;;;;9.45;4.15;;;19.30;57.30;;;;;;5067383;28;20082;-63
2023/12/31 00:06:36;;;;;;;9.90;3.88;;;19.30;57.60;;;;;;5066398;28;20048;-63
2023/12/31 00:09:02;;;;;;;9.10;4.03;;;19.30;57.10;;;;;;5067211;28;20450;-63
2023/12/31 00:11:28;;;;;;;7.10;3.85;;;19.30;57.00;;;;;;5068090;28;20027;-63
2023/12/31 00:13:54;;;;;;;8.52;4.13;;;19.30;56.70;;;;;;5064245;28;20064;-63
2023/12/31 00:16:20;;;;;;;7.63;3.65;;;19.30;57.70;;;;;;5067353;28;20841;-63
2023/12/31 00:18:45;;;;;;;9.57;3.63;;;19.40;57.40;;;;;;5067620;28;20028;-64
2023/12/31 00:21:11;;;;;;;8.82;3.55;;;19.30;56.90;;;;;;5067938;28;20039;-63
2023/12/31 00:23:37;;;;;;;7.78;3.75;;;19.30;56.90;;;;;;5067753;28;20024;-64
2023/12/31 00:26:03;;;;;;;6.90;3.83;;;19.30;56.80;;;;;;5067865;28;20060;-62
2023/12/31 00:28:29;;;;;;;25.52;3.50;;;19.30;57.20;;;;;;5069487;28;20074;-62
2023/12/31 00:30:54;;;;;;;14.38;4.00;;;19.30;57.60;;;;;;5069970;28;20400;-63
2023/12/31 00:33:20;;;;;;;9.23;3.55;;;19.40;57.70;;;;;;5066132;28;20042;-62
2023/12/31 00:35:47;;;;;;;9.98;3.80;;;19.30;57.20;;;;;;5066644;28;20028;-63
2023/12/31 00:38:13;;;;;;;9.70;3.90;;;19.30;57.60;;;;;;5068130;28;20068;-63
2023/12/31 00:40:39;;;;;;;11.15;3.85;;;19.30;57.10;;;;;;5067868;28;20064;-62
2023/12/31 00:43:05;;;;;;;7.93;3.50;;;19.30;57.50;;;;;;5069283;28;20060;-62
2023/12/31 00:45:30;;;;;;;7.20;3.72;;;19.30;57.20;;;;;;5068188;28;20029;-64
2023/12/31 00:47:56;;;;;;;7.82;3.28;;;19.30;57.10;;;;;;5068734;28;20115;-63
2023/12/31 00:50:22;;;;;;;7.70;3.25;;;19.30;57.20;;;;;;5069257;28;20039;-64
2023/12/31 00:52:48;;;;;;;6.45;3.40;;;19.30;57.10;;;;;;5051027;28;20033;-63
2023/12/31 00:55:13;;;;;;;8.18;3.53;;;19.30;57.40;;;;;;5068293;28;20449;-63
2023/12/31 00:57:39;;;;;;;6.13;3.10;;;19.30;57.90;;;;;;5067243;28;20024;-62
2023/12/31 01:00:06;;;;;;;13.95;3.65;;;19.30;57.80;;;;;;5068018;28;20043;-63
2023/12/31 01:02:31;;;;;;;8.30;3.90;;;19.30;57.90;;;;;;5067564;28;20109;-62
2023/12/31 01:04:57;;;;;;;6.15;3.13;;;19.30;58.00;;;;;;5066908;28;20391;-63
2023/12/31 01:07:23;;;;;;;8.68;3.65;;;19.30;58.10;;;;;;5067270;28;20073;-64
2023/12/31 01:09:49;;;;;;;8.65;3.30;;;19.30;57.80;;;;;;5068634;28;20036;-62
2023/12/31 01:12:14;;;;;;;7.55;3.50;;;19.30;57.70;;;;;;5068515;28;20113;-63
2023/12/31 01:14:41;;;;;;;6.95;3.20;;;19.30;57.50;;;;;;5068275;28;20033;-64
2023/12/31 01:17:08;;;;;;;10.38;3.67;;;19.30;58.10;;;;;;5068525;28;20025;-64
2023/12/31 01:19:35;;;;;;;8.88;3.10;;;19.30;58.00;;;;;;5068089;28;20111;-64
2023/12/31 01:22:01;;;;;;;10.20;3.40;;;19.30;57.50;;;;;;5067601;28;20039;-63
2023/12/31 01:24:26;;;;;;;7.88;3.38;;;19.30;57.60;;;;;;5066601;28;20056;-63
2023/12/31 01:26:52;;;;;;;7.85;3.35;;;19.30;58.20;;;;;;5068716;28;20047;-62
2023/12/31 01:29:18;;;;;;;8.23;3.42;;;19.30;58.10;;;;;;5068395;28;20097;-64
2023/12/31 01:31:44;;;;;;;5.75;3.42;;;19.30;58.00;;;;;;5068755;28;20025;-62
2023/12/31 01:34:10;;;;;;;7.75;3.05;;;19.30;58.60;;;;;;5067159;28;20028;-64
2023/12/31 01:36:35;;;;;;;6.05;3.17;;;19.30;58.00;;;;;;5068259;28;20043;-63
2023/12/31 01:39:01;;;;;;;5.45;3.38;;;19.30;57.60;;;;;;5068667;28;20515;-63
2023/12/31 01:41:28;;;;;;;7.47;3.97;;;19.30;58.00;;;;;;5068146;28;20463;-64
2023/12/31 01:44:02;;;;;;;6.60;3.17;;;19.30;58.30;;;;;;5068338;28;20028;-64
2023/12/31 01:46:29;;;;;;;9.35;3.28;;;19.30;58.30;;;;;;5067262;28;20035;-64
2023/12/31 01:48:55;;;;;;;7.50;3.35;;;19.30;58.50;;;;;;5067759;28;20025;-64
2023/12/31 01:51:23;;;;;;;10.05;3.50;;;19.30;58.50;;;;;;5068695;28;20032;-64
2023/12/31 01:53:49;;;;;;;10.60;3.88;;;19.30;57.70;;;;;;5066831;28;20097;-64
2023/12/31 01:56:16;;;;;;;8.98;3.42;;;19.30;57.90;;;;;;5066649;28;20032;-64
2023/12/31 01:58:43;;;;;;;9.55;3.08;;;19.30;58.30;;;;;;5069461;28;20552;-63
2023/12/31 02:01:10;;;;;;;8.63;2.85;;;19.30;58.30;;;;;;5071160;28;20020;-64
2023/12/31 02:03:36;;;;;;;8.80;3.25;;;19.30;58.50;;;;;;5070006;28;20400;-63
2023/12/31 02:06:02;;;;;;;16.38;3.78;;;19.30;58.50;;;;;;5070654;28;20063;-63
2023/12/31 02:08:28;;;;;;;11.65;3.83;;;19.30;59.00;;;;;;5070975;28;20036;-63
2023/12/31 02:10:55;;;;;;;9.27;3.28;;;19.30;59.00;;;;;;5071137;28;20036;-64
2023/12/31 02:13:20;;;;;;;11.13;3.65;;;19.30;59.10;;;;;;5069867;28;20499;-63
2023/12/31 02:15:51;;;;;;;12.85;3.67;;;19.30;59.30;;;;;;5070583;28;20428;-63
2023/12/31 02:18:17;;;;;;;7.95;2.90;;;19.30;58.70;;;;;;5071073;28;20029;-64
2023/12/31 02:20:44;;;;;;;11.10;3.50;;;19.20;59.30;;;;;;5071094;28;20035;-64
2023/12/31 02:23:10;;;;;;;7.38;3.15;;;19.20;59.50;;;;;;5069781;28;20032;-63
2023/12/31 02:25:41;;;;;;;9.02;3.50;;;19.20;59.40;;;;;;5070655;28;20128;-63
2023/12/31 02:28:13;;;;;;;7.68;3.30;;;19.20;58.90;;;;;;5069873;28;20025;-63
2023/12/31 02:30:39;;;;;;;8.93;3.00;;;19.20;58.90;;;;;;5071169;28;20021;-63
2023/12/31 02:33:05;;;;;;;12.55;3.22;;;19.20;57.80;;;;;;5073869;28;20030;-63
2023/12/31 02:35:32;;;;;;;6.63;2.85;;;19.20;58.50;;;;;;5074081;28;20075;-63
2023/12/31 02:37:58;;;;;;;11.07;3.10;;;19.20;58.70;;;;;;5074374;28;20021;-64
2023/12/31 02:40:23;;;;;;;9.65;3.33;;;19.20;58.60;;;;;;5073177;28;20449;-64
2023/12/31 02:42:50;;;;;;;7.53;3.00;;;19.20;58.20;;;;;;5074399;28;20369;-63
2023/12/31 02:45:16;;;;;;;7.80;3.30;;;19.20;58.70;;;;;;5073807;28;20024;-64
2023/12/31 02:47:42;;;;;;;8.05;2.95;;;19.20;58.50;;;;;;5074296;28;20054;-64
2023/12/31 02:50:08;;;;;;;8.23;3.25;;;19.20;58.80;;;;;;5073048;28;20552;-64
2023/12/31 02:52:34;;;;;;;7.25;3.17;;;19.20;58.70;;;;;;5047419;23;20049;-59
2023/12/31 02:55:00;;;;;;;12.95;3.35;;;19.20;58.70;;;;;;5019030;28;20060;-56
2023/12/31 02:57:27;;;;;;;10.57;3.28;;;19.20;58.90;;;;;;5014357;28;20513;-57
2023/12/31 02:59:53;;;;;;;7.25;2.90;;;19.20;59.50;;;;;;5013195;28;20542;-58
2023/12/31 03:02:18;;;;;;;7.95;3.15;;;19.20;58.10;;;;;;5013283;28;20037;-54
2023/12/31 03:04:44;;;;;;;5.30;2.60;;;19.20;57.60;;;;;;5013877;28;20030;-53
2023/12/31 03:07:10;;;;;;;7.20;2.97;;;19.20;58.70;;;;;;5012887;28;20160;-56
2023/12/31 03:09:36;;;;;;;7.28;3.08;;;19.20;59.00;;;;;;5012865;28;20030;-53
2023/12/31 03:12:02;;;;;;;6.85;2.90;;;19.20;58.50;;;;;;5014002;28;20025;-55
2023/12/31 03:14:27;;;;;;;6.03;2.70;;;19.20;59.00;;;;;;5013731;28;20029;-53
2023/12/31 03:16:53;;;;;;;6.60;2.50;;;19.20;58.80;;;;;;5013986;28;20092;-54
2023/12/31 03:19:19;;;;;;;7.18;3.00;;;19.20;58.90;;;;;;5013949;28;20025;-52
2023/12/31 03:21:45;;;;;;;7.63;3.38;;;19.20;58.20;;;;;;5012620;28;20571;-58
2023/12/31 03:24:11;;;;;;;4.88;2.72;;;19.20;59.00;;;;;;5012462;28;20109;-53
2023/12/31 03:26:36;;;;;;;8.27;3.00;;;19.20;58.70;;;;;;5013622;28;20045;-56
2023/12/31 03:29:02;;;;;;;7.90;2.42;;;19.20;59.10;;;;;;5012580;28;20026;-57
2023/12/31 03:31:28;;;;;;;5.43;2.80;;;19.20;58.40;;;;;;5013620;28;20033;-56
2023/12/31 03:33:54;;;;;;;6.03;2.72;;;19.20;59.00;;;;;;5013682;28;20022;-58
2023/12/31 03:36:24;;;;;;;8.05;2.92;;;19.20;58.30;;;;;;5013301;28;20101;-59
2023/12/31 03:38:50;;;;;;;;;;;19.20;58.60;;;;;;5014077;28;20030;-52
2023/12/31 03:41:16;;;;;;;6.50;2.67;;;19.20;58.90;;;;;;5013523;28;19932;-54
2023/12/31 03:43:42;;;;;;;5.57;2.83;;;19.20;58.40;;;;;;5012403;28;20056;-55
2023/12/31 03:46:08;;;;;;;8.95;2.70;;;19.20;59.20;;;;;;5013065;28;20489;-53
2023/12/31 03:48:34;;;;;;;5.70;2.38;;;19.20;59.00;;;;;;5013438;28;20473;-52
2023/12/31 03:51:00;;;;;;;7.20;2.65;;;19.20;58.30;;;;;;5013053;28;20041;-56
2023/12/31 03:53:25;;;;;;;6.85;2.55;;;19.20;58.60;;;;;;5013367;28;20057;-54
2023/12/31 03:55:51;;;;;;;5.53;2.50;;;19.20;59.10;;;;;;5013031;28;20068;-55
2023/12/31 03:58:17;;;;;;;4.22;2.60;;;19.20;58.90;;;;;;5012043;28;20053;-56
2023/12/31 04:00:43;;;;;;;7.30;3.22;;;19.10;59.10;;;;;;5013102;28;20030;-55
2023/12/31 04:03:09;;;;;;;5.22;2.50;;;19.10;58.80;;;;;;5013306;28;20037;-57
2023/12/31 04:05:35;;;;;;;7.20;2.50;;;19.10;59.10;;;;;;5012649;28;20493;-52
2023/12/31 04:08:01;;;;;;;6.22;2.55;;;19.10;58.80;;;;;;5011812;28;20034;-54
2023/12/31 04:10:27;;;;;;;3.83;2.13;;;19.20;58.70;;;;;;5013045;28;20136;-59
2023/12/31 04:12:52;;;;;;;8.43;2.70;;;19.10;59.20;;;;;;5012858;28;20417;-56
2023/12/31 04:15:18;;;;;;;6.05;2.65;;;19.10;58.80;;;;;;5012620;28;20371;-59
2023/12/31 04:17:44;;;;;;;6.80;2.70;;;19.10;58.40;;;;;;5012863;28;20441;-60
2023/12/31 04:20:10;;;;;;;7.38;2.35;;;19.10;59.00;;;;;;5012811;28;20213;-58
2023/12/31 04:22:36;;;;;;;5.07;2.60;;;19.10;58.90;;;;;;5012796;28;20053;-57
2023/12/31 04:25:02;;;;;;;5.85;2.30;;;19.10;57.80;;;;;;5011350;28;20026;-58
2023/12/31 04:27:30;;;;;;;7.28;2.47;;;19.10;58.30;;;;;;5012686;28;20100;-55
2023/12/31 04:29:56;;;;;;;4.30;2.33;;;19.10;58.00;;;;;;5012691;28;20025;-57
2023/12/31 04:32:25;;;;;;;4.20;2.50;;;19.10;59.00;;;;;;5012518;28;20382;-56
2023/12/31 04:34:51;;;;;;;3.78;2.30;;;19.10;58.70;;;;;;5012162;28;20034;-58
2023/12/31 04:37:16;;;;;;;4.90;2.58;;;19.10;59.90;;;;;;5012579;28;20040;-56
2023/12/31 04:39:42;;;;;;;5.68;2.40;;;19.10;58.80;;;;;;5012521;28;20030;-54
2023/12/31 04:42:08;;;;;;;7.50;2.42;;;19.10;59.60;;;;;;5012440;28;20045;-53
2023/12/31 04:44:34;;;;;;;5.85;2.55;;;19.10;58.50;;;;;;5012172;28;20034;-51
2023/12/31 04:46:59;;;;;;;5.60;2.40;;;19.10;59.30;;;;;;5011245;28;20034;-55
2023/12/31 04:49:25;;;;;;;4.15;2.13;;;19.10;59.80;;;;;;5012251;28;20034;-50
2023/12/31 04:51:51;;;;;;;5.30;2.47;;;19.10;59.50;;;;;;5010898;28;20029;-49
2023/12/31 04:54:17;;;;;;;5.20;2.22;;;19.10;59.50;;;;;;5011598;28;20073;-50
2023/12/31 04:56:42;;;;;;;3.63;2.20;;;19.00;58.40;;;;;;5011047;28;20404;-49
2023/12/31 04:59:08;;;;;;;4.90;2.58;;;19.00;59.40;;;;;;5012240;28;20040;-53
2023/12/31 05:01:34;;;;;;;5.07;2.65;;;19.00;59.70;;;;;;5012058;28;20038;-52
2023/12/31 05:04:01;;;;;;;3.63;2.30;;;19.00;58.50;;;;;;5011975;28;20029;-52
2023/12/31 05:06:27;;;;;;;3.88;2.35;;;19.00;59.30;;;;;;5011831;28;20033;-49
2023/12/31 05:08:52;;;;;;;6.70;2.50;;;19.10;59.20;;;;;;5012035;28;20021;-52
2023/12/31 05:11:18;;;;;;;4.55;2.30;;;19.00;58.50;;;;;;5011961;28;20097;-51
2023/12/31 05:13:44;;;;;;;7.30;2.58;;;19.10;59.00;;;;;;5011943;28;20028;-49
2023/12/31 05:16:14;;;;;;;6.25;2.60;;;19.00;59.20;;;;;;5011649;28;20029;-50
2023/12/31 05:18:46;;;;;;;4.47;2.60;;;19.10;59.10;;;;;;5011820;28;20033;-53
2023/12/31 05:21:12;;;;;;;5.10;2.47;;;19.00;59.30;;;;;;5011847;28;20034;-56
2023/12/31 05:23:39;;;;;;;6.90;2.40;;;19.00;59.70;;;;;;5011827;28;20113;-54
2023/12/31 05:26:05;;;;;;;6.00;2.47;;;19.10;59.50;;;;;;5011597;28;20036;-52
2023/12/31 05:28:30;;;;;;;6.82;2.55;;;19.10;58.70;;;;;;5011881;28;20026;-53
2023/12/31 05:30:56;;;;;;;4.82;2.22;;;19.10;59.20;;;;;;5011720;28;20018;-53
2023/12/31 05:33:22;;;;;;;7.18;2.20;;;19.10;57.80;;;;;;5011650;28;20030;-55
2023/12/31 05:35:48;;;;;;;6.60;2.35;;;19.10;58.90;;;;;;5011508;28;20104;-54
2023/12/31 05:38:13;;;;;;;5.95;2.47;;;19.00;59.30;;;;;;5011819;28;20041;-56
2023/12/31 05:40:39;;;;;;;4.43;2.50;;;19.10;59.10;;;;;;5011659;28;20037;-55
2023/12/31 05:43:05;;;;;;;7.72;2.45;;;19.10;59.40;;;;;;5011697;28;20026;-56
2023/12/31 05:45:31;;;;;;;4.57;2.20;;;19.10;59.30;;;;;;5011362;28;20058;-53
2023/12/31 05:47:57;;;;;;;4.95;2.50;;;19.10;59.60;;;;;;5011617;28;20041;-56
2023/12/31 05:50:22;;;;;;;5.10;2.40;;;19.10;59.20;;;;;;5011622;28;20030;-57
2023/12/31 05:52:48;;;;;;;5.55;2.50;;;19.10;58.60;;;;;;5011410;28;20026;-57
2023/12/31 05:55:14;;;;;;;6.78;2.40;;;19.10;59.30;;;;;;5011356;28;20026;-56
2023/12/31 05:57:42;;;;;;;4.15;2.40;;;19.00;59.30;;;;;;5011556;28;20065;-56
2023/12/31 06:00:09;;;;;;;4.88;2.45;;;19.10;59.30;;;;;;5011513;28;20482;-56
2023/12/31 06:02:38;;;;;;;;;;;19.00;58.40;;;;;;5011815;28;20563;-54
2023/12/31 06:05:04;;;;;;;3.30;2.40;;;19.10;58.30;;;;;;5011162;28;19960;-51
2023/12/31 06:07:30;;;;;;;5.05;2.30;;;19.10;58.90;;;;;;5013594;28;20111;-56
2023/12/31 06:09:56;;;;;;;4.65;2.45;;;19.10;58.50;;;;;;5015320;28;20029;-55
2023/12/31 06:12:22;;;;;;;5.55;2.55;;;19.00;58.20;;;;;;5015167;28;20496;-51
2023/12/31 06:14:48;;;;;;;5.70;2.60;;;19.10;57.80;;;;;;5014872;28;20025;-56
2023/12/31 06:17:14;;;;;;;7.47;2.35;;;19.00;57.10;;;;;;5015279;28;20037;-55
2023/12/31 06:19:40;;;;;;;5.28;2.45;;;19.10;57.50;;;;;;5015180;28;20025;-53
2023/12/31 06:22:06;;;;;;;4.30;2.20;;;19.00;57.10;;;;;;5015309;28;20101;-55
2023/12/31 06:24:32;;;;;;;4.55;2.53;;;19.00;57.00;;;;;;5014712;28;20030;-53
2023/12/31 06:26:58;;;;;;;5.05;2.42;;;19.10;57.30;;;;;;5014933;28;20543;-54
2023/12/31 06:29:24;;;;;;;5.25;2.50;;;19.10;57.30;;;;;;5014985;28;20026;-52
2023/12/31 06:31:49;;;;;;;5.47;2.20;;;19.00;56.80;;;;;;5014770;28;20030;-53
2023/12/31 06:34:16;;;;;;;5.55;2.50;;;19.10;56.90;;;;;;5014599;28;20501;-54
2023/12/31 06:36:42;;;;;;;4.25;2.67;;;19.10;57.00;;;;;;5014734;28;20509;-50
2023/12/31 06:39:09;;;;;;;5.82;2.42;;;19.10;57.10;;;;;;5014815;28;20029;-50
2023/12/31 06:41:36;;;;;;;5.95;2.50;;;19.10;57.30;;;;;;5014575;28;20076;-54
2023/12/31 06:44:01;;;;;;;5.20;2.50;;;19.10;56.90;;;;;;5014442;28;20104;-54
2023/12/31 06:46:27;;;;;;;4.93;2.15;;;19.10;57.20;;;;;;5014250;28;20489;-52
2023/12/31 06:48:54;;;;;;;5.07;2.50;;;19.10;56.90;;;;;;5014628;28;20101;-52
2023/12/31 06:51:20;;;;;;;5.13;2.53;;;19.10;58.00;;;;;;5014348;28;20536;-49
2023/12/31 06:53:45;;;;;;;6.57;2.78;;;19.10;57.40;;;;;;5014423;28;20030;-53
2023/12/31 06:56:12;;;;;;;4.97;2.20;;;19.10;56.90;;;;;;5014109;28;20113;-53
2023/12/31 06:58:38;;;;;;;4.25;2.58;;;19.10;57.20;;;;;;5014259;28;20032;-51
2023/12/31 07:01:04;;;;;;;5.88;2.40;;;19.10;56.90;;;;;;5014208;28;20029;-51
2023/12/31 07:03:31;;;;;;;6.32;2.47;;;19.10;57.50;;;;;;5014308;28;20025;-55
2023/12/31 07:05:57;;;;;;;7.57;2.25;;;19.10;57.40;;;;;;5012694;28;20030;-51
2023/12/31 07:08:23;;;;;;;4.57;2.58;;;19.10;57.00;;;;;;5014150;28;20034;-49
2023/12/31 07:10:53;;;;;;;3.97;2.13;;;19.10;57.10;;;;;;5014219;28;20065;-54
2023/12/31 07:13:19;;;;;;;6.30;2.85;;;19.10;57.40;;;;;;5013996;28;20436;-47
2023/12/31 07:15:45;;;;;;;4.20;2.40;;;19.10;57.60;;;;;;5013647;28;20054;-52
2023/12/31 07:18:11;;;;;;;4.10;2.42;;;19.10;57.40;;;;;;5013612;28;20058;-53
2023/12/31 07:20:36;;;;;;;6.50;2.85;;;19.10;57.20;;;;;;5013903;28;20397;-50
2023/12/31 07:23:03;;;;;;;3.95;2.53;;;19.10;57.00;;;;;;5013862;28;20025;-53
2023/12/31 07:25:30;;;;;;;4.03;2.58;;;19.10;57.00;;;;;;5013552;28;20478;-54
2023/12/31 07:27:56;;;;;;;4.30;2.45;;;19.10;57.20;;;;;;5013768;28;20026;-52
2023/12/31 07:30:22;;;;;;;5.03;2.55;;;19.10;56.80;;;;;;5012673;28;20026;-56
2023/12/31 07:32:48;;;;;;;6.22;2.60;;;19.10;56.80;;;;;;5013659;28;20022;-56
2023/12/31 07:35:14;;;;;;;5.47;2.53;;;19.10;56.80;;;;;;5013430;28;20025;-57
2023/12/31 07:37:40;;;;;;;6.30;2.55;;;19.10;57.10;;;;;;5013806;28;20160;-57
2023/12/31 07:40:07;;;;;;;5.43;2.80;;;19.10;56.80;;;;;;5013530;28;20521;-54
2023/12/31 07:42:35;;;;;;;5.05;2.70;;;19.10;56.80;;;;;;5013275;28;20061;-51
2023/12/31 07:45:07;;;;;;;5.03;2.45;;;19.10;56.60;;;;;;5013083;28;20034;-48
2023/12/31 07:47:35;;;;;;;5.13;2.90;;;19.10;56.90;;;;;;5013480;28;20041;-48
2023/12/31 07:50:07;;;;;;;4.13;2.58;;;19.10;57.00;;;;;;5013283;28;20026;-51
2023/12/31 07:52:33;;;;;;;5.10;2.60;;;19.10;56.80;;;;;;5013228;28;20026;-51
2023/12/31 07:54:59;;;;;;;5.28;2.85;;;19.10;57.70;;;;;;5013025;28;20076;-51
2023/12/31 07:57:25;;;;;;;5.07;2.75;;;19.10;56.40;;;;;;5013476;28;20025;-48
2023/12/31 07:59:51;;;;;;;5.50;2.70;;;19.10;56.50;;;;;;5013058;28;20501;-50
2023/12/31 08:02:16;;;;;;;5.47;2.88;;;19.10;56.80;;;;;;5015294;28;20036;-55
2023/12/31 08:04:42;;;;;;;7.10;3.00;;;19.10;56.60;;;;;;5013821;28;20079;-53
2023/12/31 08:07:08;;;;;;;5.85;2.72;;;19.20;56.70;;;;;;5013100;28;20036;-56
2023/12/31 08:09:34;;;;;;;4.00;2.55;;;19.20;57.10;;;;;;5013076;28;20033;-54
2023/12/31 08:12:00;;;;;;;5.80;2.70;;;19.20;56.60;;;;;;5012981;28;20037;-49
2023/12/31 08:14:26;;;;;;;5.15;2.70;;;19.10;56.40;;;;;;5012745;28;20029;-51
2023/12/31 08:16:51;;;;;;;4.63;2.60;;;19.20;56.80;;;;;;5012846;28;20030;-54
2023/12/31 08:19:17;;;;;;;5.00;2.83;;;19.10;57.20;;;;;;5012610;28;20088;-53
2023/12/31 08:21:43;;;;;;;4.60;2.70;;;19.20;56.90;;;;;;5012723;28;20030;-54
2023/12/31 08:24:09;;;;;;;4.80;2.75;;;19.10;56.80;;;;;;5012558;28;20034;-59
2023/12/31 08:26:36;;;;;;;6.07;2.90;;;19.10;56.70;;;;;;5012539;28;20109;-53
2023/12/31 08:29:03;;;;;;;6.68;3.00;;;19.10;56.80;;;;;;5012030;28;20034;-56
2023/12/31 08:31:28;;;;;;;6.90;3.08;;;19.10;57.00;;;;;;5012452;28;20061;-54
2023/12/31 08:33:54;;;;;;;6.57;3.10;;;19.10;56.80;;;;;;5012622;28;20053;-52
2023/12/31 08:36:20;;;;;;;6.22;3.20;;;19.10;56.80;;;;;;5012349;28;20034;-52
2023/12/31 08:38:46;;;;;;;5.57;2.65;;;19.10;56.70;;;;;;5012548;28;20405;-52
2023/12/31 08:41:11;;;;;;;5.03;2.80;;;19.10;57.40;;;;;;5011282;28;20398;-49
2023/12/31 08:43:37;;;;;;;6.95;2.78;;;19.10;56.70;;;;;;5012323;28;20022;-50
2023/12/31 08:46:03;;;;;;;5.75;2.90;;;19.10;57.10;;;;;;5012002;28;20033;-51
2023/12/31 08:48:29;;;;;;;12.43;3.17;;;19.10;56.70;;;;;;5012337;28;20137;-51
2023/12/31 08:50:55;;;;;;;4.10;2.55;;;19.10;56.70;;;;;;5012151;28;20064;-53
2023/12/31 08:53:21;;;;;;;5.07;2.90;;;19.10;57.10;;;;;;5012458;28;20030;-50
2023/12/31 08:55:51;;;;;;;6.10;2.72;;;19.10;57.00;;;;;;5012047;28;20030;-59
2023/12/31 08:58:17;;;;;;;9.98;2.90;;;19.10;56.50;;;;;;5012169;28;20497;-56
2023/12/31 09:00:43;;;;;;;3.92;2.47;;;19.10;56.50;;;;;;5012163;28;20524;-55
2023/12/31 09:03:09;;;;;;;8.50;3.10;;;19.10;57.00;;;;;;5012225;28;20034;-55
2023/12/31 09:05:35;;;;;;;10.15;2.80;;;19.10;57.00;;;;;;5010554;28;20034;-53
2023/12/31 09:08:02;;;;;;;6.85;2.90;;;19.10;57.10;;;;;;5012030;28;20040;-58
2023/12/31 09:10:28;;;;;;;5.05;2.60;;;19.10;57.30;;;;;;5012002;28;20029;-57
2023/12/31 09:12:54;;;;;;;6.05;2.78;;;19.10;57.30;;;;;;5011858;28;20018;-59
2023/12/31 09:15:20;;;;;;;5.68;3.15;;;19.10;57.30;;;;;;5012036;28;20038;-55
2023/12/31 09:17:45;;;;;;;7.55;2.90;;;19.10;57.00;;;;;;5011904;28;20038;-53
2023/12/31 09:20:13;;;;;;;6.15;2.67;;;19.10;57.40;;;;;;5011931;28;20037;-53
2023/12/31 09:22:39;;;;;;;6.07;2.83;;;19.10;56.90;;;;;;5011924;28;20109;-59
2023/12/31 09:25:08;;;;;;;5.25;2.45;;;19.10;57.90;;;;;;5011387;28;20113;-59
2023/12/31 09:27:37;;;;;;;5.35;2.92;;;19.10;57.30;;;;;;5011801;28;20060;-56
2023/12/31 09:30:03;;;;;;;5.50;3.10;;;19.10;57.30;;;;;;5011701;28;20050;-59
2023/12/31 09:32:30;;;;;;;9.38;2.92;;;19.10;56.80;;;;;;5011732;28;20046;-57
2023/12/31 09:34:56;;;;;;;6.38;3.03;;;19.10;57.10;;;;;;5011427;28;20371;-57
2023/12/31 09:37:23;;;;;;;4.93;2.40;;;19.10;56.90;;;;;;5011820;28;20033;-59
2023/12/31 09:39:49;;;;;;;6.72;3.00;;;19.10;57.40;;;;;;5011682;28;20030;-56
2023/12/31 09:42:20;;;;;;;4.47;2.85;;;19.10;57.00;;;;;;5015048;28;20029;-54
2023/12/31 09:44:49;;;;;;;4.47;2.60;;;19.10;56.80;;;;;;5015589;28;20030;-57
2023/12/31 09:47:14;;;;;;;7.78;3.13;;;19.10;57.20;;;;;;5015803;28;20025;-57
2023/12/31 09:49:44;;;;;;;5.18;2.83;;;19.10;57.00;;;;;;5015621;28;20482;-51
2023/12/31 09:52:09;;;;;;;17.13;3.28;;;19.10;57.40;;;;;;5015249;28;20081;-54
2023/12/31 09:54:40;;;;;;;5.50;2.80;;;19.20;57.70;;;;;;5015297;28;20076;-51
2023/12/31 09:57:07;;;;;;;4.75;2.58;;;19.10;57.40;;;;;;5015666;28;20501;-56
2023/12/31 09:59:33;;;;;;;5.07;2.92;;;19.20;57.00;;;;;;5015699;28;20482;-51
2023/12/31 10:02:03;;;;;;;5.25;3.00;;;19.10;56.90;;;;;;5015391;28;20037;-54
2023/12/31 10:04:29;;;;;;;4.78;2.95;;;19.10;56.80;;;;;;5015032;28;20026;-54
2023/12/31 10:06:56;;;;;;;5.63;3.00;;;19.10;56.90;;;;;;5015280;28;20083;-57
2023/12/31 10:09:27;;;;;;;6.70;3.22;;;19.10;56.50;;;;;;5015268;28;20424;-57
2023/12/31 10:11:54;;;;;;;7.55;3.08;;;19.10;56.60;;;;;;5015018;28;20035;-56
2023/12/31 10:14:21;;;;;;;5.18;2.90;;;19.20;56.50;;;;;;5014749;28;20477;-54
2023/12/31 10:16:48;;;;;;;5.38;2.90;;;19.20;56.60;;;;;;5015135;28;20028;-53
2023/12/31 10:19:14;;;;;;;5.80;3.13;;;19.20;56.20;;;;;;5015131;28;20033;-50
2023/12/31 10:21:43;;;;;;;5.53;3.03;;;19.20;56.30;;;;;;5014993;28;20026;-56
2023/12/31 10:24:10;;;;;;;5.25;3.03;;;19.20;56.60;;;;;;5014833;28;20037;-55
2023/12/31 10:26:36;;;;;;;5.22;3.22;;;19.20;56.50;;;;;;5014644;28;20672;-52
2023/12/31 10:29:05;;;;;;;6.18;2.80;;;19.20;56.40;;;;;;5014811;28;20041;-55
2023/12/31 10:31:32;;;;;;;6.93;3.20;;;19.20;56.40;;;;;;5013572;28;20026;-55
2023/12/31 10:34:17;;;;;;;5.35;3.10;;;19.20;56.30;;;;;;5014733;28;20110;-52
2023/12/31 10:36:44;;;;;;;5.05;2.90;;;19.20;56.50;;;;;;5014685;28;20021;-54
2023/12/31 10:39:10;;;;;;;5.07;3.13;;;19.20;57.00;;;;;;5014780;28;20133;-55
2023/12/31 10:41:37;;;;;;;6.40;3.08;;;19.20;56.80;;;;;;5014692;28;20109;-51
2023/12/31 10:44:10;;;;;;;5.50;3.00;;;19.20;56.60;;;;;;5014511;28;20049;-56
2023/12/31 10:46:37;;;;;;;4.70;2.92;;;19.10;56.40;;;;;;5029640;28;20044;-57
2023/12/31 10:49:04;;;;;;;6.05;3.20;;;19.20;56.60;;;;;;5054120;28;20025;-54
2023/12/31 10:51:32;;;;;;;5.18;3.15;;;19.10;56.90;;;;;;5053951;28;20025;-50
2023/12/31 10:54:02;;;;;;;12.18;3.20;;;19.20;56.80;;;;;;5053342;28;20385;-50
2023/12/31 10:56:28;;;;;;;8.68;3.50;;;19.20;57.60;;;;;;5053625;28;20485;-53
2023/12/31 10:58:55;;;;;;;8.68;3.42;;;19.20;58.00;;;;;;5053751;28;20032;-56
2023/12/31 11:01:25;;;;;;;14.68;4.22;;;19.20;58.50;;;;;;5053849;28;20028;-56
2023/12/31 11:03:55;;;;;;;13.18;3.33;;;19.20;56.30;;;;;;5054025;28;20037;-56
2023/12/31 11:06:23;;;;;;;10.27;3.45;;;19.10;54.30;;;;;;5053511;28;20029;-56
2023/12/31 11:08:49;;;;;;;6.60;3.08;;;19.00;53.60;;;;;;5053788;28;20431;-53
2023/12/31 11:11:16;;;;;;;14.27;3.60;;;19.00;53.80;;;;;;5053558;28;20025;-58
2023/12/31 11:13:51;;;;;;;8.20;3.58;;;19.10;55.20;;;;;;5053736;28;20025;-58
2023/12/31 11:16:44;;;;;;;5.32;2.78;;;19.10;54.70;;;;;;5053354;28;20032;-59
2023/12/31 11:19:22;;;;;;;12.90;3.50;;;19.10;54.90;;;;;;5053582;28;20135;-58
2023/12/31 11:22:11;;;;;;;7.18;2.80;;;19.20;56.10;;;;;;5053593;28;20112;-58
2023/12/31 11:24:37;;;;;;;11.43;3.73;;;19.20;57.10;;;;;;5053168;28;20039;-58
2023/12/31 11:27:07;;;;;;;10.30;3.50;;;19.30;58.30;;;;;;5053496;28;20546;-57
2023/12/31 11:29:33;;;;;;;12.13;3.53;;;19.30;58.10;;;;;;5053495;28;20032;-60
2023/12/31 11:31:59;;;;;;;10.23;3.40;;;19.30;57.40;;;;;;5053567;28;20021;-54
2023/12/31 11:34:25;;;;;;;12.30;3.63;;;19.40;59.40;;;;;;5052984;28;20033;-52
2023/12/31 11:36:54;;;;;;;8.80;3.83;;;19.40;57.40;;;;;;5053402;28;20028;-57
2023/12/31 11:39:20;;;;;;;36.65;5.50;;;19.30;59.00;;;;;;5053331;28;20547;-57
2023/12/31 11:41:52;;;;;;;17.30;4.25;;;19.30;58.10;;;;;;5053279;28;20017;-54
2023/12/31 11:44:37;;;;;;;17.48;4.07;;;19.30;58.20;;;;;;5052873;28;20119;-54
2023/12/31 11:47:16;;;;;;;11.25;4.45;;;19.30;58.30;;;;;;5053089;28;20060;-55
2023/12/31 11:49:53;;;;;;;22.88;4.90;;;19.30;58.90;;;;;;5053169;28;20025;-54
2023/12/31 11:52:20;;;;;;;18.25;4.10;;;19.30;58.40;;;;;;5052911;28;20095;-56
2023/12/31 11:54:46;;;;;;;13.30;4.03;;;19.30;58.80;;;;;;5052660;28;20032;-53
2023/12/31 11:57:16;;;;;;;11.43;4.43;;;19.40;58.90;;;;;;5052876;28;20399;-52
2023/12/31 11:59:44;;;;;;;16.25;5.47;;;19.40;58.40;;;;;;5052920;28;20021;-56
2023/12/31 12:02:10;;;;;;;13.82;5.03;;;19.30;57.80;;;;;;5052604;28;20033;-56
2023/12/31 12:04:36;;;;;;;29.15;4.30;;;19.30;57.60;;;;;;5051323;28;20448;-57
2023/12/31 12:07:05;;;;;;;11.68;4.32;;;19.30;57.80;;;;;;5052818;28;20112;-58
2023/12/31 12:09:33;;;;;;;11.07;4.80;;;19.30;57.80;;;;;;5052599;28;20561;-55
2023/12/31 12:12:00;;;;;;;10.30;4.47;;;19.40;58.10;;;;;;5052440;28;20029;-56
2023/12/31 12:14:26;;;;;;;10.48;4.50;;;19.30;58.10;;;;;;5052355;28;20029;-55
2023/12/31 12:16:53;;;;;;;19.05;4.60;;;19.30;58.50;;;;;;5052195;28;20476;-56
2023/12/31 12:19:21;;;;;;;13.00;4.70;;;19.30;58.60;;;;;;5052641;28;20029;-57
2023/12/31 12:21:46;;;;;;;10.65;4.88;;;19.30;58.40;;;;;;5052452;28;20029;-56
2023/12/31 12:24:13;;;;;;;12.65;4.90;;;19.40;58.50;;;;;;5052236;28;20036;-56
2023/12/31 12:26:39;;;;;;;15.80;5.38;;;19.40;58.70;;;;;;5052317;28;20048;-56
2023/12/31 12:29:05;;;;;;;16.42;4.53;;;19.40;58.20;;;;;;5052382;28;20021;-55
2023/12/31 12:31:35;;;;;;;13.93;5.00;;;19.30;58.60;;;;;;5052314;28;20504;-57
2023/12/31 12:34:02;;;;;;;;;;;19.40;58.80;;;;;;5052791;28;20032;-54
2023/12/31 12:36:28;;;;;;;10.10;4.55;;;19.40;58.70;;;;;;5052079;28;19909;-57
2023/12/31 12:38:59;;;;;;;12.70;4.60;;;19.30;58.30;;;;;;5052088;28;20040;-57
2023/12/31 12:41:25;;;;;;;13.20;4.43;;;19.40;58.40;;;;;;5052136;28;20024;-57
2023/12/31 12:43:56;;;;;;;12.93;5.00;;;19.30;58.40;;;;;;5052107;28;20067;-54